sensor_id;sensor_type;location;lat;lon;timestamp;P1;durP1;ratioP1;P2;durP2;ratioP2
66567;SDS011;53422;49.296;6.900;2023-03-03T00:01:29;36.53;;;11.95;;
66567;SDS011;53422;49.296;6.900;2023-03-03T00:03:56;37.08;;;12.10;;
66567;SDS011;53422;49.296;6.900;2023-03-03T00:06:23;38.65;;;12.77;;
66567;SDS011;53422;49.296;6.900;2023-03-03T00:08:49;38.40;;;12.18;;
66567;SDS011;53422;49.296;6.900;2023-03-03T00:11:15;36.40;;;12.80;;
66567;SDS011;53422;49.296;6.900;2023-03-03T00:13:59;33.67;;;12.18;;
66567;SDS011;53422;49.296;6.900;2023-03-03T00:16:31;31.00;;;11.82;;
66567;SDS011;53422;49.296;6.900;2023-03-03T00:19:01;37.63;;;11.15;;
66567;SDS011;53422;49.296;6.900;2023-03-03T00:21:28;31.27;;;12.52;;
66567;SDS011;53422;49.296;6.900;2023-03-03T00:23:58;27.52;;;11.38;;
66567;SDS011;53422;49.296;6.900;2023-03-03T00:26:37;32.33;;;10.60;;
66567;SDS011;53422;49.296;6.900;2023-03-03T00:34:39;30.20;;;11.52;;
66567;SDS011;53422;49.296;6.900;2023-03-03T00:37:18;44.13;;;11.85;;
66567;SDS011;53422;49.296;6.900;2023-03-03T00:39:44;34.50;;;10.55;;
66567;SDS011;53422;49.296;6.900;2023-03-03T00:42:13;40.15;;;12.13;;
66567;SDS011;53422;49.296;6.900;2023-03-03T00:49:52;33.50;;;12.07;;
66567;SDS011;53422;49.296;6.900;2023-03-03T00:52:19;36.70;;;11.68;;
66567;SDS011;53422;49.296;6.900;2023-03-03T00:54:45;36.53;;;11.95;;
66567;SDS011;53422;49.296;6.900;2023-03-03T00:57:11;32.60;;;11.98;;
66567;SDS011;53422;49.296;6.900;2023-03-03T00:59:37;31.00;;;10.10;;
66567;SDS011;53422;49.296;6.900;2023-03-03T01:02:03;41.20;;;10.98;;
66567;SDS011;53422;49.296;6.900;2023-03-03T01:04:29;30.33;;;10.68;;
66567;SDS011;53422;49.296;6.900;2023-03-03T01:06:55;35.00;;;10.82;;
66567;SDS011;53422;49.296;6.900;2023-03-03T01:09:21;30.40;;;10.95;;
66567;SDS011;53422;49.296;6.900;2023-03-03T01:11:47;27.23;;;9.95;;
66567;SDS011;53422;49.296;6.900;2023-03-03T01:14:13;34.42;;;11.10;;
66567;SDS011;53422;49.296;6.900;2023-03-03T01:16:39;30.00;;;10.25;;
66567;SDS011;53422;49.296;6.900;2023-03-03T01:19:05;31.13;;;10.57;;
66567;SDS011;53422;49.296;6.900;2023-03-03T01:21:31;30.23;;;10.65;;
66567;SDS011;53422;49.296;6.900;2023-03-03T01:23:57;30.48;;;11.02;;
66567;SDS011;53422;49.296;6.900;2023-03-03T01:26:23;34.75;;;11.50;;
66567;SDS011;53422;49.296;6.900;2023-03-03T01:28:49;29.00;;;10.90;;
66567;SDS011;53422;49.296;6.900;2023-03-03T01:31:14;32.92;;;11.07;;
66567;SDS011;53422;49.296;6.900;2023-03-03T01:33:40;28.55;;;10.80;;
66567;SDS011;53422;49.296;6.900;2023-03-03T01:36:06;33.55;;;10.65;;
66567;SDS011;53422;49.296;6.900;2023-03-03T01:38:34;33.70;;;9.93;;
66567;SDS011;53422;49.296;6.900;2023-03-03T01:41:00;28.17;;;10.05;;
66567;SDS011;53422;49.296;6.900;2023-03-03T01:43:27;31.92;;;10.77;;
66567;SDS011;53422;49.296;6.900;2023-03-03T01:50:54;34.10;;;11.68;;
66567;SDS011;53422;49.296;6.900;2023-03-03T01:53:29;28.42;;;10.55;;
66567;SDS011;53422;49.296;6.900;2023-03-03T01:55:59;33.33;;;10.23;;
66567;SDS011;53422;49.296;6.900;2023-03-03T01:58:30;33.33;;;11.50;;
66567;SDS011;53422;49.296;6.900;2023-03-03T02:01:01;32.72;;;10.73;;
66567;SDS011;53422;49.296;6.900;2023-03-03T02:03:29;38.40;;;11.13;;
66567;SDS011;53422;49.296;6.900;2023-03-03T02:05:56;34.47;;;11.23;;
66567;SDS011;53422;49.296;6.900;2023-03-03T02:08:29;31.98;;;10.23;;
66567;SDS011;53422;49.296;6.900;2023-03-03T02:11:01;32.47;;;10.27;;
66567;SDS011;53422;49.296;6.900;2023-03-03T02:13:27;28.42;;;10.18;;
66567;SDS011;53422;49.296;6.900;2023-03-03T02:15:53;30.58;;;9.55;;
66567;SDS011;53422;49.296;6.900;2023-03-03T02:18:20;27.10;;;9.75;;
66567;SDS011;53422;49.296;6.900;2023-03-03T02:23:35;33.80;;;10.65;;
66567;SDS011;53422;49.296;6.900;2023-03-03T02:26:21;26.75;;;10.25;;
66567;SDS011;53422;49.296;6.900;2023-03-03T02:28:55;35.08;;;11.18;;
66567;SDS011;53422;49.296;6.900;2023-03-03T02:31:23;31.25;;;11.10;;
66567;SDS011;53422;49.296;6.900;2023-03-03T02:33:51;31.58;;;10.90;;
66567;SDS011;53422;49.296;6.900;2023-03-03T02:44:04;32.47;;;10.07;;
66567;SDS011;53422;49.296;6.900;2023-03-03T02:46:37;34.75;;;10.77;;
66567;SDS011;53422;49.296;6.900;2023-03-03T02:49:05;31.33;;;10.20;;
66567;SDS011;53422;49.296;6.900;2023-03-03T02:51:33;32.17;;;10.45;;
66567;SDS011;53422;49.296;6.900;2023-03-03T02:53:59;30.05;;;10.13;;
66567;SDS011;53422;49.296;6.900;2023-03-03T02:56:25;31.85;;;10.90;;
66567;SDS011;53422;49.296;6.900;2023-03-03T02:58:51;31.27;;;10.20;;
66567;SDS011;53422;49.296;6.900;2023-03-03T03:01:16;26.45;;;9.85;;
66567;SDS011;53422;49.296;6.900;2023-03-03T03:03:42;26.08;;;10.48;;
66567;SDS011;53422;49.296;6.900;2023-03-03T03:06:08;27.52;;;10.23;;
66567;SDS011;53422;49.296;6.900;2023-03-03T03:08:34;30.92;;;10.48;;
66567;SDS011;53422;49.296;6.900;2023-03-03T03:11:00;32.70;;;10.18;;
66567;SDS011;53422;49.296;6.900;2023-03-03T03:13:27;29.17;;;10.73;;
66567;SDS011;53422;49.296;6.900;2023-03-03T03:15:53;28.30;;;9.55;;
66567;SDS011;53422;49.296;6.900;2023-03-03T03:18:18;26.83;;;9.27;;
66567;SDS011;53422;49.296;6.900;2023-03-03T03:20:44;32.45;;;9.35;;
66567;SDS011;53422;49.296;6.900;2023-03-03T03:23:10;24.50;;;9.23;;
66567;SDS011;53422;49.296;6.900;2023-03-03T03:25:36;25.05;;;9.05;;
66567;SDS011;53422;49.296;6.900;2023-03-03T03:28:09;24.05;;;8.95;;
66567;SDS011;53422;49.296;6.900;2023-03-03T03:30:38;25.35;;;10.05;;
66567;SDS011;53422;49.296;6.900;2023-03-03T03:33:04;25.98;;;9.10;;
66567;SDS011;53422;49.296;6.900;2023-03-03T03:35:31;38.15;;;13.43;;
66567;SDS011;53422;49.296;6.900;2023-03-03T03:37:57;34.10;;;11.38;;
66567;SDS011;53422;49.296;6.900;2023-03-03T03:40:23;31.25;;;11.52;;
66567;SDS011;53422;49.296;6.900;2023-03-03T03:42:50;32.80;;;11.20;;
66567;SDS011;53422;49.296;6.900;2023-03-03T03:45:20;26.00;;;9.48;;
66567;SDS011;53422;49.296;6.900;2023-03-03T03:47:45;29.48;;;9.65;;
66567;SDS011;53422;49.296;6.900;2023-03-03T03:50:11;35.45;;;10.60;;
66567;SDS011;53422;49.296;6.900;2023-03-03T03:52:37;26.08;;;9.07;;
66567;SDS011;53422;49.296;6.900;2023-03-03T03:55:03;29.67;;;8.90;;
66567;SDS011;53422;49.296;6.900;2023-03-03T03:57:29;18.65;;;7.72;;
66567;SDS011;53422;49.296;6.900;2023-03-03T03:59:55;23.75;;;8.45;;
66567;SDS011;53422;49.296;6.900;2023-03-03T04:02:21;19.13;;;7.55;;
66567;SDS011;53422;49.296;6.900;2023-03-03T04:04:47;26.08;;;8.00;;
66567;SDS011;53422;49.296;6.900;2023-03-03T04:07:12;22.75;;;8.50;;
66567;SDS011;53422;49.296;6.900;2023-03-03T04:09:38;23.15;;;8.55;;
66567;SDS011;53422;49.296;6.900;2023-03-03T04:12:04;20.77;;;8.55;;
66567;SDS011;53422;49.296;6.900;2023-03-03T04:14:30;22.10;;;7.50;;
66567;SDS011;53422;49.296;6.900;2023-03-03T04:16:55;20.77;;;8.13;;
66567;SDS011;53422;49.296;6.900;2023-03-03T04:19:21;27.95;;;8.75;;
66567;SDS011;53422;49.296;6.900;2023-03-03T04:21:47;17.45;;;7.63;;
66567;SDS011;53422;49.296;6.900;2023-03-03T04:24:13;22.05;;;7.68;;
66567;SDS011;53422;49.296;6.900;2023-03-03T04:26:38;19.80;;;6.75;;
66567;SDS011;53422;49.296;6.900;2023-03-03T04:29:04;17.58;;;6.65;;
66567;SDS011;53422;49.296;6.900;2023-03-03T04:31:30;19.25;;;7.30;;
66567;SDS011;53422;49.296;6.900;2023-03-03T04:33:56;16.83;;;6.25;;
66567;SDS011;53422;49.296;6.900;2023-03-03T04:36:22;19.65;;;6.35;;
66567;SDS011;53422;49.296;6.900;2023-03-03T04:38:48;20.88;;;6.32;;
66567;SDS011;53422;49.296;6.900;2023-03-03T04:41:14;19.50;;;6.78;;
66567;SDS011;53422;49.296;6.900;2023-03-03T04:43:40;21.88;;;7.50;;
66567;SDS011;53422;49.296;6.900;2023-03-03T04:46:05;17.42;;;6.65;;
66567;SDS011;53422;49.296;6.900;2023-03-03T04:48:31;19.92;;;6.47;;
66567;SDS011;53422;49.296;6.900;2023-03-03T04:50:57;21.27;;;7.93;;
66567;SDS011;53422;49.296;6.900;2023-03-03T04:53:22;21.13;;;8.27;;
66567;SDS011;53422;49.296;6.900;2023-03-03T04:55:49;22.38;;;7.25;;
66567;SDS011;53422;49.296;6.900;2023-03-03T04:58:15;18.25;;;6.72;;
66567;SDS011;53422;49.296;6.900;2023-03-03T05:00:44;21.02;;;7.78;;
66567;SDS011;53422;49.296;6.900;2023-03-03T05:03:17;20.25;;;6.13;;
66567;SDS011;53422;49.296;6.900;2023-03-03T05:05:44;16.23;;;8.10;;
66567;SDS011;53422;49.296;6.900;2023-03-03T05:08:10;20.77;;;6.97;;
66567;SDS011;53422;49.296;6.900;2023-03-03T05:10:36;24.85;;;7.10;;
66567;SDS011;53422;49.296;6.900;2023-03-03T05:13:03;18.90;;;6.85;;
66567;SDS011;53422;49.296;6.900;2023-03-03T05:15:29;21.83;;;7.20;;
66567;SDS011;53422;49.296;6.900;2023-03-03T05:17:55;17.13;;;6.20;;
66567;SDS011;53422;49.296;6.900;2023-03-03T05:20:21;20.23;;;7.00;;
66567;SDS011;53422;49.296;6.900;2023-03-03T05:22:47;15.52;;;6.18;;
66567;SDS011;53422;49.296;6.900;2023-03-03T05:25:13;20.75;;;7.10;;
66567;SDS011;53422;49.296;6.900;2023-03-03T05:27:38;16.10;;;6.07;;
66567;SDS011;53422;49.296;6.900;2023-03-03T05:30:04;15.73;;;6.47;;
66567;SDS011;53422;49.296;6.900;2023-03-03T05:32:31;21.73;;;8.18;;
66567;SDS011;53422;49.296;6.900;2023-03-03T05:34:57;28.38;;;8.70;;
66567;SDS011;53422;49.296;6.900;2023-03-03T05:37:22;18.15;;;7.45;;
66567;SDS011;53422;49.296;6.900;2023-03-03T05:39:48;16.40;;;6.63;;
66567;SDS011;53422;49.296;6.900;2023-03-03T05:42:14;18.55;;;6.20;;
66567;SDS011;53422;49.296;6.900;2023-03-03T05:44:40;21.52;;;8.23;;
66567;SDS011;53422;49.296;6.900;2023-03-03T05:47:06;26.58;;;8.95;;
66567;SDS011;53422;49.296;6.900;2023-03-03T05:49:32;24.77;;;8.05;;
66567;SDS011;53422;49.296;6.900;2023-03-03T05:51:58;18.55;;;8.00;;
66567;SDS011;53422;49.296;6.900;2023-03-03T05:54:24;18.05;;;6.97;;
66567;SDS011;53422;49.296;6.900;2023-03-03T05:56:50;22.80;;;6.72;;
66567;SDS011;53422;49.296;6.900;2023-03-03T05:59:15;20.30;;;6.90;;
66567;SDS011;53422;49.296;6.900;2023-03-03T06:01:41;21.20;;;7.22;;
66567;SDS011;53422;49.296;6.900;2023-03-03T06:04:07;21.33;;;6.60;;
66567;SDS011;53422;49.296;6.900;2023-03-03T06:06:32;15.32;;;6.57;;
66567;SDS011;53422;49.296;6.900;2023-03-03T06:08:58;16.92;;;6.35;;
66567;SDS011;53422;49.296;6.900;2023-03-03T06:11:24;17.63;;;6.97;;
66567;SDS011;53422;49.296;6.900;2023-03-03T06:13:49;14.77;;;5.10;;
66567;SDS011;53422;49.296;6.900;2023-03-03T06:16:15;12.07;;;5.65;;
66567;SDS011;53422;49.296;6.900;2023-03-03T06:18:42;18.63;;;6.47;;
66567;SDS011;53422;49.296;6.900;2023-03-03T06:21:07;14.25;;;5.68;;
66567;SDS011;53422;49.296;6.900;2023-03-03T06:23:33;14.93;;;6.60;;
66567;SDS011;53422;49.296;6.900;2023-03-03T06:25:58;14.70;;;5.32;;
66567;SDS011;53422;49.296;6.900;2023-03-03T06:28:24;19.00;;;6.10;;
66567;SDS011;53422;49.296;6.900;2023-03-03T06:30:53;14.73;;;5.88;;
66567;SDS011;53422;49.296;6.900;2023-03-03T06:33:20;19.63;;;6.60;;
66567;SDS011;53422;49.296;6.900;2023-03-03T06:35:49;15.07;;;6.20;;
66567;SDS011;53422;49.296;6.900;2023-03-03T06:38:16;20.38;;;7.35;;
66567;SDS011;53422;49.296;6.900;2023-03-03T06:40:41;17.40;;;6.28;;
66567;SDS011;53422;49.296;6.900;2023-03-03T06:43:07;14.68;;;5.60;;
66567;SDS011;53422;49.296;6.900;2023-03-03T06:45:33;21.20;;;6.57;;
66567;SDS011;53422;49.296;6.900;2023-03-03T06:47:59;17.88;;;5.97;;
66567;SDS011;53422;49.296;6.900;2023-03-03T06:50:26;14.82;;;6.25;;
66567;SDS011;53422;49.296;6.900;2023-03-03T06:52:57;13.70;;;5.40;;
66567;SDS011;53422;49.296;6.900;2023-03-03T06:55:36;13.07;;;5.68;;
66567;SDS011;53422;49.296;6.900;2023-03-03T06:58:04;19.90;;;7.13;;
66567;SDS011;53422;49.296;6.900;2023-03-03T07:00:42;25.45;;;8.23;;
66567;SDS011;53422;49.296;6.900;2023-03-03T07:03:22;25.05;;;8.68;;
66567;SDS011;53422;49.296;6.900;2023-03-03T07:05:56;20.48;;;7.68;;
66567;SDS011;53422;49.296;6.900;2023-03-03T07:08:23;20.63;;;8.13;;
66567;SDS011;53422;49.296;6.900;2023-03-03T07:10:49;22.45;;;6.88;;
66567;SDS011;53422;49.296;6.900;2023-03-03T07:13:19;24.00;;;6.78;;
66567;SDS011;53422;49.296;6.900;2023-03-03T07:15:49;18.45;;;6.28;;
66567;SDS011;53422;49.296;6.900;2023-03-03T07:21:05;14.65;;;6.22;;
66567;SDS011;53422;49.296;6.900;2023-03-03T07:23:40;14.77;;;6.82;;
66567;SDS011;53422;49.296;6.900;2023-03-03T07:26:11;18.73;;;7.57;;
66567;SDS011;53422;49.296;6.900;2023-03-03T07:29:09;20.02;;;6.53;;
66567;SDS011;53422;49.296;6.900;2023-03-03T07:36:45;28.98;;;9.57;;
66567;SDS011;53422;49.296;6.900;2023-03-03T07:44:52;23.23;;;9.13;;
66567;SDS011;53422;49.296;6.900;2023-03-03T07:47:26;24.25;;;8.70;;
66567;SDS011;53422;49.296;6.900;2023-03-03T07:49:55;23.02;;;8.38;;
66567;SDS011;53422;49.296;6.900;2023-03-03T07:52:32;24.30;;;9.85;;
66567;SDS011;53422;49.296;6.900;2023-03-03T07:58:35;22.17;;;8.25;;
66567;SDS011;53422;49.296;6.900;2023-03-03T08:03:55;31.52;;;11.38;;
66567;SDS011;53422;49.296;6.900;2023-03-03T08:14:07;22.77;;;8.00;;
66567;SDS011;53422;49.296;6.900;2023-03-03T08:16:36;24.13;;;8.00;;
66567;SDS011;53422;49.296;6.900;2023-03-03T08:19:02;23.70;;;7.63;;
66567;SDS011;53422;49.296;6.900;2023-03-03T08:21:30;30.08;;;9.40;;
66567;SDS011;53422;49.296;6.900;2023-03-03T08:23:58;30.70;;;9.25;;
66567;SDS011;53422;49.296;6.900;2023-03-03T08:26:24;26.25;;;9.65;;
66567;SDS011;53422;49.296;6.900;2023-03-03T08:28:51;17.15;;;6.82;;
66567;SDS011;53422;49.296;6.900;2023-03-03T08:31:17;20.63;;;7.25;;
66567;SDS011;53422;49.296;6.900;2023-03-03T08:33:43;22.63;;;8.52;;
66567;SDS011;53422;49.296;6.900;2023-03-03T08:36:09;17.48;;;7.18;;
66567;SDS011;53422;49.296;6.900;2023-03-03T08:38:35;22.70;;;8.68;;
66567;SDS011;53422;49.296;6.900;2023-03-03T08:41:02;24.17;;;8.10;;
66567;SDS011;53422;49.296;6.900;2023-03-03T08:43:28;19.85;;;6.65;;
66567;SDS011;53422;49.296;6.900;2023-03-03T08:45:56;17.05;;;6.28;;
66567;SDS011;53422;49.296;6.900;2023-03-03T08:48:24;18.80;;;6.88;;
66567;SDS011;53422;49.296;6.900;2023-03-03T08:50:51;18.02;;;7.45;;
66567;SDS011;53422;49.296;6.900;2023-03-03T08:53:17;13.02;;;5.70;;
66567;SDS011;53422;49.296;6.900;2023-03-03T08:55:44;14.40;;;5.15;;
66567;SDS011;53422;49.296;6.900;2023-03-03T08:58:11;11.57;;;4.38;;
66567;SDS011;53422;49.296;6.900;2023-03-03T09:00:38;16.58;;;5.72;;
66567;SDS011;53422;49.296;6.900;2023-03-03T09:03:04;15.13;;;4.50;;
66567;SDS011;53422;49.296;6.900;2023-03-03T09:05:33;10.65;;;4.43;;
66567;SDS011;53422;49.296;6.900;2023-03-03T09:08:00;3.97;;;2.72;;
66567;SDS011;53422;49.296;6.900;2023-03-03T09:10:27;18.30;;;6.40;;
66567;SDS011;53422;49.296;6.900;2023-03-03T09:12:55;10.10;;;4.40;;
66567;SDS011;53422;49.296;6.900;2023-03-03T09:15:25;17.30;;;6.72;;
66567;SDS011;53422;49.296;6.900;2023-03-03T09:17:53;16.60;;;6.75;;
66567;SDS011;53422;49.296;6.900;2023-03-03T09:20:38;17.33;;;7.75;;
66567;SDS011;53422;49.296;6.900;2023-03-03T09:25:48;10.88;;;4.80;;
66567;SDS011;53422;49.296;6.900;2023-03-03T09:28:33;6.07;;;4.10;;
66567;SDS011;53422;49.296;6.900;2023-03-03T09:31:00;16.33;;;6.50;;
66567;SDS011;53422;49.296;6.900;2023-03-03T09:36:09;15.85;;;6.10;;
66567;SDS011;53422;49.296;6.900;2023-03-03T09:38:43;15.95;;;5.60;;
66567;SDS011;53422;49.296;6.900;2023-03-03T10:06:24;17.65;;;7.07;;
66567;SDS011;53422;49.296;6.900;2023-03-03T10:20:34;22.38;;;8.23;;
66567;SDS011;53422;49.296;6.900;2023-03-03T10:50:01;15.15;;;6.70;;
66567;SDS011;53422;49.296;6.900;2023-03-03T10:58:31;19.70;;;8.27;;
66567;SDS011;53422;49.296;6.900;2023-03-03T11:01:36;23.42;;;9.50;;
66567;SDS011;53422;49.296;6.900;2023-03-03T11:09:29;19.58;;;7.18;;
66567;SDS011;53422;49.296;6.900;2023-03-03T11:26:27;18.33;;;6.75;;
66567;SDS011;53422;49.296;6.900;2023-03-03T11:29:31;16.48;;;5.70;;
66567;SDS011;53422;49.296;6.900;2023-03-03T11:32:14;24.50;;;9.30;;
66567;SDS011;53422;49.296;6.900;2023-03-03T11:40:18;15.57;;;4.25;;
66567;SDS011;53422;49.296;6.900;2023-03-03T11:45:46;20.15;;;8.60;;
66567;SDS011;53422;49.296;6.900;2023-03-03T11:51:33;21.92;;;8.20;;
66567;SDS011;53422;49.296;6.900;2023-03-03T11:57:13;21.20;;;8.05;;
66567;SDS011;53422;49.296;6.900;2023-03-03T11:59:51;18.48;;;5.60;;
66567;SDS011;53422;49.296;6.900;2023-03-03T12:05:35;22.30;;;11.70;;
66567;SDS011;53422;49.296;6.900;2023-03-03T12:11:01;21.17;;;7.22;;
66567;SDS011;53422;49.296;6.900;2023-03-03T12:13:49;25.58;;;8.95;;
66567;SDS011;53422;49.296;6.900;2023-03-03T12:16:21;20.02;;;7.55;;
66567;SDS011;53422;49.296;6.900;2023-03-03T12:22:30;18.83;;;5.97;;
66567;SDS011;53422;49.296;6.900;2023-03-03T12:25:17;14.52;;;5.78;;
66567;SDS011;53422;49.296;6.900;2023-03-03T12:27:51;13.68;;;4.95;;
66567;SDS011;53422;49.296;6.900;2023-03-03T12:39:09;16.65;;;6.45;;
66567;SDS011;53422;49.296;6.900;2023-03-03T12:44:37;23.50;;;9.75;;
66567;SDS011;53422;49.296;6.900;2023-03-03T12:52:38;18.38;;;7.85;;
66567;SDS011;53422;49.296;6.900;2023-03-03T12:55:16;19.55;;;6.65;;
66567;SDS011;53422;49.296;6.900;2023-03-03T13:03:42;19.70;;;7.65;;
66567;SDS011;53422;49.296;6.900;2023-03-03T13:06:27;22.00;;;7.97;;
66567;SDS011;53422;49.296;6.900;2023-03-03T13:22:45;19.58;;;7.63;;
66567;SDS011;53422;49.296;6.900;2023-03-03T13:31:18;15.63;;;5.90;;
66567;SDS011;53422;49.296;6.900;2023-03-03T13:34:04;19.48;;;7.97;;
66567;SDS011;53422;49.296;6.900;2023-03-03T13:39:46;24.95;;;8.85;;
66567;SDS011;53422;49.296;6.900;2023-03-03T13:44:53;20.20;;;7.80;;
66567;SDS011;53422;49.296;6.900;2023-03-03T13:55:28;21.67;;;8.52;;
66567;SDS011;53422;49.296;6.900;2023-03-03T14:06:18;23.00;;;7.70;;
66567;SDS011;53422;49.296;6.900;2023-03-03T14:11:59;19.98;;;6.43;;
66567;SDS011;53422;49.296;6.900;2023-03-03T14:19:43;11.75;;;3.95;;
66567;SDS011;53422;49.296;6.900;2023-03-03T14:22:18;10.10;;;3.83;;
66567;SDS011;53422;49.296;6.900;2023-03-03T14:27:36;10.45;;;3.92;;
66567;SDS011;53422;49.296;6.900;2023-03-03T14:30:26;17.90;;;6.40;;
66567;SDS011;53422;49.296;6.900;2023-03-03T14:33:02;6.53;;;2.47;;
66567;SDS011;53422;49.296;6.900;2023-03-03T14:38:46;13.32;;;6.22;;
66567;SDS011;53422;49.296;6.900;2023-03-03T14:40:48;12.82;;;5.70;;
66567;SDS011;53422;49.296;6.900;2023-03-03T14:43:38;17.00;;;6.07;;
66567;SDS011;53422;49.296;6.900;2023-03-03T14:46:21;12.57;;;5.90;;
66567;SDS011;53422;49.296;6.900;2023-03-03T14:49:01;24.13;;;6.78;;
66567;SDS011;53422;49.296;6.900;2023-03-03T14:54:19;14.77;;;5.70;;
66567;SDS011;53422;49.296;6.900;2023-03-03T14:56:56;18.45;;;7.55;;
66567;SDS011;53422;49.296;6.900;2023-03-03T14:59:25;17.10;;;6.70;;
66567;SDS011;53422;49.296;6.900;2023-03-03T15:04:47;10.80;;;3.72;;
66567;SDS011;53422;49.296;6.900;2023-03-03T15:07:34;17.55;;;6.25;;
66567;SDS011;53422;49.296;6.900;2023-03-03T15:10:00;8.45;;;3.50;;
66567;SDS011;53422;49.296;6.900;2023-03-03T15:15:09;11.10;;;4.50;;
66567;SDS011;53422;49.296;6.900;2023-03-03T15:29:15;19.10;;;5.15;;
66567;SDS011;53422;49.296;6.900;2023-03-03T15:40:27;18.80;;;7.45;;
66567;SDS011;53422;49.296;6.900;2023-03-03T15:45:45;20.77;;;7.68;;
66567;SDS011;53422;49.296;6.900;2023-03-03T16:04:32;18.08;;;7.80;;
66567;SDS011;53422;49.296;6.900;2023-03-03T16:07:04;15.98;;;5.68;;
66567;SDS011;53422;49.296;6.900;2023-03-03T16:12:46;14.52;;;5.85;;
66567;SDS011;53422;49.296;6.900;2023-03-03T16:15:23;22.70;;;7.60;;
66567;SDS011;53422;49.296;6.900;2023-03-03T16:23:58;20.30;;;6.35;;
66567;SDS011;53422;49.296;6.900;2023-03-03T16:26:41;16.17;;;5.78;;
66567;SDS011;53422;49.296;6.900;2023-03-03T16:32:09;19.90;;;8.35;;
66567;SDS011;53422;49.296;6.900;2023-03-03T16:37:37;21.63;;;6.75;;
66567;SDS011;53422;49.296;6.900;2023-03-03T16:40:25;26.02;;;8.77;;
66567;SDS011;53422;49.296;6.900;2023-03-03T16:43:39;20.05;;;7.22;;
66567;SDS011;53422;49.296;6.900;2023-03-03T16:51:48;19.75;;;7.05;;
66567;SDS011;53422;49.296;6.900;2023-03-03T16:54:33;19.63;;;6.82;;
66567;SDS011;53422;49.296;6.900;2023-03-03T17:24:51;17.33;;;6.47;;
66567;SDS011;53422;49.296;6.900;2023-03-03T17:33:04;15.80;;;5.88;;
66567;SDS011;53422;49.296;6.900;2023-03-03T17:46:00;19.48;;;6.82;;
66567;SDS011;53422;49.296;6.900;2023-03-03T18:02:42;25.17;;;9.07;;
66567;SDS011;53422;49.296;6.900;2023-03-03T18:10:51;28.35;;;9.40;;
66567;SDS011;53422;49.296;6.900;2023-03-03T18:21:57;26.77;;;9.32;;
66567;SDS011;53422;49.296;6.900;2023-03-03T18:24:57;22.50;;;7.80;;
66567;SDS011;53422;49.296;6.900;2023-03-03T18:27:28;21.42;;;7.53;;
66567;SDS011;53422;49.296;6.900;2023-03-03T18:32:41;25.20;;;8.00;;
66567;SDS011;53422;49.296;6.900;2023-03-03T18:38:17;21.88;;;7.93;;
66567;SDS011;53422;49.296;6.900;2023-03-03T18:46:10;22.45;;;8.13;;
66567;SDS011;53422;49.296;6.900;2023-03-03T18:49:04;27.27;;;9.35;;
66567;SDS011;53422;49.296;6.900;2023-03-03T19:02:18;27.23;;;9.20;;
66567;SDS011;53422;49.296;6.900;2023-03-03T19:05:07;27.48;;;10.73;;
66567;SDS011;53422;49.296;6.900;2023-03-03T19:07:48;19.23;;;8.10;;
66567;SDS011;53422;49.296;6.900;2023-03-03T19:12:47;29.88;;;8.10;;
66567;SDS011;53422;49.296;6.900;2023-03-03T19:21:00;19.40;;;7.93;;
66567;SDS011;53422;49.296;6.900;2023-03-03T19:40:10;23.48;;;8.75;;
66567;SDS011;53422;49.296;6.900;2023-03-03T19:42:44;20.38;;;8.18;;
66567;SDS011;53422;49.296;6.900;2023-03-03T19:48:32;23.05;;;8.68;;
66567;SDS011;53422;49.296;6.900;2023-03-03T19:51:21;23.10;;;8.73;;
66567;SDS011;53422;49.296;6.900;2023-03-03T19:53:55;23.15;;;8.50;;
66567;SDS011;53422;49.296;6.900;2023-03-03T20:01:33;23.13;;;8.27;;
66567;SDS011;53422;49.296;6.900;2023-03-03T20:06:58;24.58;;;9.07;;
66567;SDS011;53422;49.296;6.900;2023-03-03T20:20:18;26.05;;;8.93;;
66567;SDS011;53422;49.296;6.900;2023-03-03T20:31:30;33.13;;;11.10;;
66567;SDS011;53422;49.296;6.900;2023-03-03T20:34:08;34.13;;;11.30;;
66567;SDS011;53422;49.296;6.900;2023-03-03T20:42:11;33.22;;;10.65;;
66567;SDS011;53422;49.296;6.900;2023-03-03T20:45:20;36.30;;;11.45;;
66567;SDS011;53422;49.296;6.900;2023-03-03T20:48:01;34.58;;;10.80;;
66567;SDS011;53422;49.296;6.900;2023-03-03T20:59:42;21.35;;;7.38;;
66567;SDS011;53422;49.296;6.900;2023-03-03T21:04:15;28.60;;;9.90;;
66567;SDS011;53422;49.296;6.900;2023-03-03T21:06:43;12.85;;;6.15;;
66567;SDS011;53422;49.296;6.900;2023-03-03T21:09:20;22.55;;;7.78;;
66567;SDS011;53422;49.296;6.900;2023-03-03T21:11:46;27.88;;;9.93;;
66567;SDS011;53422;49.296;6.900;2023-03-03T21:14:22;30.95;;;10.60;;
66567;SDS011;53422;49.296;6.900;2023-03-03T21:16:50;33.17;;;10.45;;
66567;SDS011;53422;49.296;6.900;2023-03-03T21:19:31;34.83;;;11.18;;
66567;SDS011;53422;49.296;6.900;2023-03-03T21:21:58;32.75;;;11.32;;
66567;SDS011;53422;49.296;6.900;2023-03-03T21:24:58;30.10;;;9.05;;
66567;SDS011;53422;49.296;6.900;2023-03-03T21:27:28;30.35;;;9.82;;
66567;SDS011;53422;49.296;6.900;2023-03-03T21:30:08;23.27;;;8.38;;
66567;SDS011;53422;49.296;6.900;2023-03-03T21:32:42;32.47;;;10.45;;
66567;SDS011;53422;49.296;6.900;2023-03-03T21:35:10;31.02;;;10.80;;
66567;SDS011;53422;49.296;6.900;2023-03-03T21:37:51;21.58;;;7.90;;
66567;SDS011;53422;49.296;6.900;2023-03-03T21:42:47;30.15;;;10.27;;
66567;SDS011;53422;49.296;6.900;2023-03-03T21:45:14;33.55;;;9.98;;
66567;SDS011;53422;49.296;6.900;2023-03-03T21:47:40;30.98;;;9.20;;
66567;SDS011;53422;49.296;6.900;2023-03-03T21:50:07;29.73;;;9.43;;
66567;SDS011;53422;49.296;6.900;2023-03-03T21:52:33;30.70;;;9.40;;
66567;SDS011;53422;49.296;6.900;2023-03-03T21:54:59;38.72;;;12.30;;
66567;SDS011;53422;49.296;6.900;2023-03-03T21:57:24;26.70;;;8.85;;
66567;SDS011;53422;49.296;6.900;2023-03-03T21:59:50;31.15;;;10.00;;
66567;SDS011;53422;49.296;6.900;2023-03-03T22:02:17;32.40;;;10.50;;
66567;SDS011;53422;49.296;6.900;2023-03-03T22:04:43;27.42;;;8.30;;
66567;SDS011;53422;49.296;6.900;2023-03-03T22:07:09;33.25;;;11.95;;
66567;SDS011;53422;49.296;6.900;2023-03-03T22:09:35;33.40;;;10.23;;
66567;SDS011;53422;49.296;6.900;2023-03-03T22:12:01;30.23;;;9.88;;
66567;SDS011;53422;49.296;6.900;2023-03-03T22:14:27;31.33;;;10.05;;
66567;SDS011;53422;49.296;6.900;2023-03-03T22:16:53;37.45;;;13.38;;
66567;SDS011;53422;49.296;6.900;2023-03-03T22:19:18;44.42;;;13.32;;
66567;SDS011;53422;49.296;6.900;2023-03-03T22:21:44;37.53;;;11.43;;
66567;SDS011;53422;49.296;6.900;2023-03-03T22:24:10;41.80;;;12.73;;
66567;SDS011;53422;49.296;6.900;2023-03-03T22:26:36;38.83;;;11.40;;
66567;SDS011;53422;49.296;6.900;2023-03-03T22:29:02;33.50;;;11.23;;
66567;SDS011;53422;49.296;6.900;2023-03-03T22:31:29;34.83;;;11.63;;
66567;SDS011;53422;49.296;6.900;2023-03-03T22:33:55;39.13;;;11.32;;
66567;SDS011;53422;49.296;6.900;2023-03-03T22:36:20;25.77;;;8.77;;
66567;SDS011;53422;49.296;6.900;2023-03-03T22:38:46;41.35;;;12.15;;
66567;SDS011;53422;49.296;6.900;2023-03-03T22:41:13;32.38;;;10.18;;
66567;SDS011;53422;49.296;6.900;2023-03-03T22:43:39;33.78;;;10.75;;
66567;SDS011;53422;49.296;6.900;2023-03-03T22:46:06;31.73;;;11.18;;
66567;SDS011;53422;49.296;6.900;2023-03-03T22:48:32;30.20;;;10.55;;
66567;SDS011;53422;49.296;6.900;2023-03-03T22:50:57;34.10;;;9.93;;
66567;SDS011;53422;49.296;6.900;2023-03-03T22:53:23;41.00;;;12.27;;
66567;SDS011;53422;49.296;6.900;2023-03-03T22:55:50;31.25;;;9.88;;
66567;SDS011;53422;49.296;6.900;2023-03-03T22:58:16;32.75;;;10.45;;